Nearby METAR Reports

 

KPRB - Paso Robles, California, USA
Distance from station: SW 1mi, 1km
Updated: 06/30/2016 8:32am
Partly cloudy
Partly cloudy
 Wind from varies
Wind: varies 3 mph , 6 km/h
Temperature: 55°F , 13°C
Dew Point: 50°F , 10°C
Humidity: 82%
Barometer: 29.92 inHg , 1013.2 hPa
Clouds: Partly cloudy
Visibility: 10 miles , 16 km
Cloud details: Partly cloudy 600 ft
2016/06/30 15:32 KPRB 301532Z AUTO VRB03KT 10SM SCT006 13/10 A2992 RMK AO2 T01330100 TSNO
KSBP - San Luis Obispo, California, USA
Distance from station: S 30mi, 49km
Updated: 06/30/2016 8:38am
Mist, Overcast
Mist, Overcast
 Wind from SSE
Wind: SSE 7 mph , 11 km/h
Temperature: 55°F , 13°C
Dew Point: 50°F , 10°C
Humidity: 82%
Barometer: 29.94 inHg , 1013.9 hPa
Summary: Mist
Clouds: Overcast
Visibility: 2 miles , 3 km
Cloud details: Overcast 500 ft
2016/06/30 15:38 KSBP 301538Z 15006KT 2SM BR OVC005 13/10 A2994 RMK AO2 T01280100 $
 
KSMX - Santa Maria, California, USA
Distance from station: S 54mi, 87km
Updated: 06/30/2016 7:51am
Mist, Overcast
Mist, Overcast
 Wind from calm
Wind: Calm
Temperature: 54°F , 12°C
Dew Point: 52°F , 11°C
Humidity: 94%
Barometer: 29.94 inHg , 1013.9 hPa
Summary: Mist
Clouds: Overcast
Visibility: 4 miles , 6 km
Cloud details: Overcast 500 ft
2016/06/30 14:51 KSMX 301451Z 00000KT 4SM BR OVC005 12/11 A2994 RMK AO2 SLP141 T01170111 53007
KNLC - Lemoore Nas/Reev, California, USA
Distance from station: NE 58mi, 94km
Updated: 06/30/2016 7:56am
Clear
Clear
 Wind from WNW
Wind: WNW 10 mph , 17 km/h
Temperature: 73°F , 23°C
Dew Point: 50°F , 10°C
Humidity: 44%
Barometer: 29.85 inHg , 1010.8 hPa
Clouds: Clear
Visibility: 10 miles , 16 km
2016/06/30 14:56 KNLC 301456Z 30009KT 10SM CLR 23/10 A2985 RMK AO2 SLP104 RH/44 T02330100 50007
 
KVBG - Vandenberg Afb, California, USA
Distance from station: S 65mi, 105km
Updated: 06/30/2016 8:40am
Mist, Overcast
Mist, Overcast
 Wind from NW
Wind: NW 8 mph , 13 km/h
Temperature: 52°F , 11°C
Dew Point: 52°F , 11°C
Humidity: 100%
Barometer: 29.93 inHg , 1013.5 hPa
Summary: Mist
Clouds: Overcast
Visibility: 3/4 mile , 5 km
Cloud details: Overcast 100 ft
2016/06/30 15:40 KVBG 301540Z 31007KT 3/4SM BR OVC001 11/11 A2993 RMK AO2A
KLPC - Lompoc, California, USA
Distance from station: S 70mi, 113km
Updated: 06/30/2016 8:40am
Overcast
Overcast
 Wind from NW
Wind: NW 7 mph , 11 km/h
Temperature: 54°F , 12°C
Dew Point: 52°F , 11°C
Humidity: 94%
Barometer: 29.95 inHg , 1014.2 hPa
Clouds: Overcast
Visibility: 10 miles , 16 km
Cloud details: Overcast 600 ft
2016/06/30 15:40 KLPC 301540Z AUTO 31006KT 10SM OVC006 12/11 A2995 RMK AO2
 
KHJO - Hanford, California, USA
Distance from station: NE 72mi, 116km
Updated: 06/30/2016 7:53am
Clear
Clear
 Wind from WNW
Wind: WNW 6 mph , 9 km/h
Temperature: 73°F , 23°C
Dew Point: 50°F , 10°C
Humidity: 44%
Barometer: 29.85 inHg , 1010.8 hPa
Clouds: Clear
Visibility: 10 miles , 16 km
2016/06/30 14:53 KHJO 301453Z AUTO 29005KT 10SM CLR 23/10 A2985 RMK AO2 SLP107 T02330100 52009